sensor_id;sensor_type;location;lat;lon;timestamp;temperature;humidity
41876;DHT22;27555;50.808;4.402;2022-10-22T00:00:09;16.40;99.90
41876;DHT22;27555;50.808;4.402;2022-10-22T00:02:35;16.30;99.90
41876;DHT22;27555;50.808;4.402;2022-10-22T00:05:01;16.20;99.90
41876;DHT22;27555;50.808;4.402;2022-10-22T00:07:27;16.00;99.90
41876;DHT22;27555;50.808;4.402;2022-10-22T00:09:52;16.10;99.90
41876;DHT22;27555;50.808;4.402;2022-10-22T00:12:19;16.20;99.90
41876;DHT22;27555;50.808;4.402;2022-10-22T00:14:45;16.30;99.90
41876;DHT22;27555;50.808;4.402;2022-10-22T00:17:11;16.30;99.90
41876;DHT22;27555;50.808;4.402;2022-10-22T00:19:37;16.40;99.90
41876;DHT22;27555;50.808;4.402;2022-10-22T00:22:03;16.40;99.90
41876;DHT22;27555;50.808;4.402;2022-10-22T00:24:31;16.20;99.90
41876;DHT22;27555;50.808;4.402;2022-10-22T00:26:56;16.30;99.90
41876;DHT22;27555;50.808;4.402;2022-10-22T00:29:22;16.20;99.90
41876;DHT22;27555;50.808;4.402;2022-10-22T00:31:48;16.30;99.90
41876;DHT22;27555;50.808;4.402;2022-10-22T00:34:19;16.30;99.90
41876;DHT22;27555;50.808;4.402;2022-10-22T00:36:46;16.20;99.90
41876;DHT22;27555;50.808;4.402;2022-10-22T00:39:13;16.50;99.90
41876;DHT22;27555;50.808;4.402;2022-10-22T00:41:44;16.40;99.90
41876;DHT22;27555;50.808;4.402;2022-10-22T00:47:13;16.30;99.90
41876;DHT22;27555;50.808;4.402;2022-10-22T00:49:40;16.20;99.90
41876;DHT22;27555;50.808;4.402;2022-10-22T00:52:06;16.30;99.90
41876;DHT22;27555;50.808;4.402;2022-10-22T00:54:32;16.20;99.90
41876;DHT22;27555;50.808;4.402;2022-10-22T00:56:59;16.20;99.90
41876;DHT22;27555;50.808;4.402;2022-10-22T00:59:25;16.30;99.90
41876;DHT22;27555;50.808;4.402;2022-10-22T01:01:51;16.30;99.90
41876;DHT22;27555;50.808;4.402;2022-10-22T01:04:18;16.20;99.90
41876;DHT22;27555;50.808;4.402;2022-10-22T01:06:45;16.20;99.90
41876;DHT22;27555;50.808;4.402;2022-10-22T01:17:22;15.80;99.90
41876;DHT22;27555;50.808;4.402;2022-10-22T01:20:19;15.90;99.90
41876;DHT22;27555;50.808;4.402;2022-10-22T01:22:59;16.20;99.90
41876;DHT22;27555;50.808;4.402;2022-10-22T01:25:33;16.20;99.90
41876;DHT22;27555;50.808;4.402;2022-10-22T01:30:35;16.20;99.90
41876;DHT22;27555;50.808;4.402;2022-10-22T01:33:05;16.30;99.90
41876;DHT22;27555;50.808;4.402;2022-10-22T01:35:37;16.30;99.90
41876;DHT22;27555;50.808;4.402;2022-10-22T01:38:06;16.20;99.90
41876;DHT22;27555;50.808;4.402;2022-10-22T01:40:34;16.10;99.90
41876;DHT22;27555;50.808;4.402;2022-10-22T01:43:03;16.10;99.90
41876;DHT22;27555;50.808;4.402;2022-10-22T01:45:33;16.20;99.90
41876;DHT22;27555;50.808;4.402;2022-10-22T01:51:32;16.10;99.90
41876;DHT22;27555;50.808;4.402;2022-10-22T02:04:32;16.10;99.90
41876;DHT22;27555;50.808;4.402;2022-10-22T02:07:00;15.90;99.90
41876;DHT22;27555;50.808;4.402;2022-10-22T02:09:28;15.90;99.90
41876;DHT22;27555;50.808;4.402;2022-10-22T02:11:56;15.90;99.90
41876;DHT22;27555;50.808;4.402;2022-10-22T02:14:24;15.90;99.90
41876;DHT22;27555;50.808;4.402;2022-10-22T02:16:52;15.80;99.90
41876;DHT22;27555;50.808;4.402;2022-10-22T02:19:23;15.90;99.90
41876;DHT22;27555;50.808;4.402;2022-10-22T02:21:49;16.10;99.90
41876;DHT22;27555;50.808;4.402;2022-10-22T02:24:15;15.80;99.90
41876;DHT22;27555;50.808;4.402;2022-10-22T02:29:42;16.00;99.90
41876;DHT22;27555;50.808;4.402;2022-10-22T02:32:15;16.00;99.90
41876;DHT22;27555;50.808;4.402;2022-10-22T02:34:43;16.00;99.90
41876;DHT22;27555;50.808;4.402;2022-10-22T02:37:10;16.00;99.90
41876;DHT22;27555;50.808;4.402;2022-10-22T02:39:36;16.00;99.90
41876;DHT22;27555;50.808;4.402;2022-10-22T02:42:02;15.80;99.90
41876;DHT22;27555;50.808;4.402;2022-10-22T02:44:28;16.00;99.90
41876;DHT22;27555;50.808;4.402;2022-10-22T02:46:54;16.10;99.90
41876;DHT22;27555;50.808;4.402;2022-10-22T02:49:20;15.90;99.90
41876;DHT22;27555;50.808;4.402;2022-10-22T02:51:45;15.90;99.90
41876;DHT22;27555;50.808;4.402;2022-10-22T02:54:11;15.80;99.90
41876;DHT22;27555;50.808;4.402;2022-10-22T02:56:36;15.80;99.90
41876;DHT22;27555;50.808;4.402;2022-10-22T02:59:02;15.80;99.90
41876;DHT22;27555;50.808;4.402;2022-10-22T03:01:28;15.90;99.90
41876;DHT22;27555;50.808;4.402;2022-10-22T03:03:53;15.90;99.90
41876;DHT22;27555;50.808;4.402;2022-10-22T03:06:19;15.80;99.90
41876;DHT22;27555;50.808;4.402;2022-10-22T03:08:45;15.80;99.90
41876;DHT22;27555;50.808;4.402;2022-10-22T03:11:11;15.80;99.90
41876;DHT22;27555;50.808;4.402;2022-10-22T03:13:37;15.80;99.90
41876;DHT22;27555;50.808;4.402;2022-10-22T03:16:02;15.80;99.90
41876;DHT22;27555;50.808;4.402;2022-10-22T03:18:28;15.80;99.90
41876;DHT22;27555;50.808;4.402;2022-10-22T03:21:19;15.80;99.90
41876;DHT22;27555;50.808;4.402;2022-10-22T03:23:46;15.80;99.90
41876;DHT22;27555;50.808;4.402;2022-10-22T03:26:12;16.00;99.90
41876;DHT22;27555;50.808;4.402;2022-10-22T03:28:40;16.00;99.90
41876;DHT22;27555;50.808;4.402;2022-10-22T03:31:06;16.00;99.90
41876;DHT22;27555;50.808;4.402;2022-10-22T03:33:31;15.90;99.90
41876;DHT22;27555;50.808;4.402;2022-10-22T03:35:57;15.80;99.90
41876;DHT22;27555;50.808;4.402;2022-10-22T03:38:23;15.80;99.90
41876;DHT22;27555;50.808;4.402;2022-10-22T03:40:49;15.90;99.90
41876;DHT22;27555;50.808;4.402;2022-10-22T03:43:15;16.00;99.90
41876;DHT22;27555;50.808;4.402;2022-10-22T03:45:41;16.00;99.90
41876;DHT22;27555;50.808;4.402;2022-10-22T03:48:07;16.00;99.90
41876;DHT22;27555;50.808;4.402;2022-10-22T03:50:32;16.20;99.90
41876;DHT22;27555;50.808;4.402;2022-10-22T03:52:58;16.30;99.90
41876;DHT22;27555;50.808;4.402;2022-10-22T03:55:24;16.30;99.90
41876;DHT22;27555;50.808;4.402;2022-10-22T03:57:50;16.30;99.90
41876;DHT22;27555;50.808;4.402;2022-10-22T04:00:16;16.20;99.90
41876;DHT22;27555;50.808;4.402;2022-10-22T04:02:41;16.20;99.90
41876;DHT22;27555;50.808;4.402;2022-10-22T04:05:07;16.20;99.90
41876;DHT22;27555;50.808;4.402;2022-10-22T04:07:33;16.20;99.90
41876;DHT22;27555;50.808;4.402;2022-10-22T04:09:58;16.00;99.90
41876;DHT22;27555;50.808;4.402;2022-10-22T04:12:24;15.70;99.90
41876;DHT22;27555;50.808;4.402;2022-10-22T04:14:49;16.00;99.90
41876;DHT22;27555;50.808;4.402;2022-10-22T04:17:15;16.00;99.90
41876;DHT22;27555;50.808;4.402;2022-10-22T04:19:41;16.00;99.90
41876;DHT22;27555;50.808;4.402;2022-10-22T04:22:06;15.80;99.90
41876;DHT22;27555;50.808;4.402;2022-10-22T04:24:32;15.90;99.90
41876;DHT22;27555;50.808;4.402;2022-10-22T04:26:58;15.90;99.90
41876;DHT22;27555;50.808;4.402;2022-10-22T04:29:24;15.80;99.90
41876;DHT22;27555;50.808;4.402;2022-10-22T04:31:49;15.80;99.90
41876;DHT22;27555;50.808;4.402;2022-10-22T04:34:15;15.60;99.90
41876;DHT22;27555;50.808;4.402;2022-10-22T04:36:40;15.60;99.90
41876;DHT22;27555;50.808;4.402;2022-10-22T04:39:06;15.60;99.90
41876;DHT22;27555;50.808;4.402;2022-10-22T04:41:34;15.80;99.90
41876;DHT22;27555;50.808;4.402;2022-10-22T04:44:01;15.80;99.90
41876;DHT22;27555;50.808;4.402;2022-10-22T04:46:33;15.90;99.90
41876;DHT22;27555;50.808;4.402;2022-10-22T04:48:59;16.10;99.90
41876;DHT22;27555;50.808;4.402;2022-10-22T04:51:26;16.10;99.90
41876;DHT22;27555;50.808;4.402;2022-10-22T04:53:52;16.20;99.90
41876;DHT22;27555;50.808;4.402;2022-10-22T04:56:23;16.40;99.90
41876;DHT22;27555;50.808;4.402;2022-10-22T04:58:58;16.50;99.90
41876;DHT22;27555;50.808;4.402;2022-10-22T05:01:29;16.50;99.90
41876;DHT22;27555;50.808;4.402;2022-10-22T05:03:57;16.50;99.90
41876;DHT22;27555;50.808;4.402;2022-10-22T05:06:24;16.70;99.90
41876;DHT22;27555;50.808;4.402;2022-10-22T05:08:55;16.40;99.90
41876;DHT22;27555;50.808;4.402;2022-10-22T05:11:23;16.40;99.90
41876;DHT22;27555;50.808;4.402;2022-10-22T05:13:49;16.50;99.90
41876;DHT22;27555;50.808;4.402;2022-10-22T05:16:15;16.50;99.90
41876;DHT22;27555;50.808;4.402;2022-10-22T05:18:42;16.50;99.90
41876;DHT22;27555;50.808;4.402;2022-10-22T05:21:11;16.70;99.90
41876;DHT22;27555;50.808;4.402;2022-10-22T05:23:39;16.80;99.90
41876;DHT22;27555;50.808;4.402;2022-10-22T05:26:06;16.70;99.90
41876;DHT22;27555;50.808;4.402;2022-10-22T05:28:33;16.70;99.90
41876;DHT22;27555;50.808;4.402;2022-10-22T05:31:00;16.90;99.90
41876;DHT22;27555;50.808;4.402;2022-10-22T05:33:27;16.80;99.90
41876;DHT22;27555;50.808;4.402;2022-10-22T05:35:53;16.60;99.90
41876;DHT22;27555;50.808;4.402;2022-10-22T05:38:19;16.70;99.90
41876;DHT22;27555;50.808;4.402;2022-10-22T05:40:45;16.90;99.90
41876;DHT22;27555;50.808;4.402;2022-10-22T05:43:11;16.90;99.90
41876;DHT22;27555;50.808;4.402;2022-10-22T05:45:41;16.90;99.90
41876;DHT22;27555;50.808;4.402;2022-10-22T05:48:08;17.00;99.90
41876;DHT22;27555;50.808;4.402;2022-10-22T05:50:37;16.90;99.90
41876;DHT22;27555;50.808;4.402;2022-10-22T05:53:04;16.80;99.90
41876;DHT22;27555;50.808;4.402;2022-10-22T05:55:33;16.80;99.90
41876;DHT22;27555;50.808;4.402;2022-10-22T05:58:02;16.70;99.90
41876;DHT22;27555;50.808;4.402;2022-10-22T06:00:27;16.30;99.90
41876;DHT22;27555;50.808;4.402;2022-10-22T06:02:53;16.40;99.90
41876;DHT22;27555;50.808;4.402;2022-10-22T06:05:18;16.50;99.90
41876;DHT22;27555;50.808;4.402;2022-10-22T06:07:44;16.60;99.90
41876;DHT22;27555;50.808;4.402;2022-10-22T06:10:14;16.80;99.90
41876;DHT22;27555;50.808;4.402;2022-10-22T06:12:41;16.80;99.90
41876;DHT22;27555;50.808;4.402;2022-10-22T06:15:10;16.60;99.90
41876;DHT22;27555;50.808;4.402;2022-10-22T06:17:36;16.60;99.90
41876;DHT22;27555;50.808;4.402;2022-10-22T06:20:02;16.50;99.90
41876;DHT22;27555;50.808;4.402;2022-10-22T06:22:28;16.30;99.90
41876;DHT22;27555;50.808;4.402;2022-10-22T06:24:53;16.60;99.90
41876;DHT22;27555;50.808;4.402;2022-10-22T06:27:19;16.50;99.90
41876;DHT22;27555;50.808;4.402;2022-10-22T06:29:44;16.50;99.90
41876;DHT22;27555;50.808;4.402;2022-10-22T06:32:10;16.50;99.90
41876;DHT22;27555;50.808;4.402;2022-10-22T06:34:36;16.70;99.90
41876;DHT22;27555;50.808;4.402;2022-10-22T06:37:01;16.50;99.90
41876;DHT22;27555;50.808;4.402;2022-10-22T06:39:27;16.60;99.90
41876;DHT22;27555;50.808;4.402;2022-10-22T06:41:52;16.70;99.90
41876;DHT22;27555;50.808;4.402;2022-10-22T06:44:18;16.70;99.90
41876;DHT22;27555;50.808;4.402;2022-10-22T06:46:44;16.70;99.90
41876;DHT22;27555;50.808;4.402;2022-10-22T06:49:13;16.50;99.90
41876;DHT22;27555;50.808;4.402;2022-10-22T06:51:39;16.50;99.90
41876;DHT22;27555;50.808;4.402;2022-10-22T06:54:05;16.50;99.90
41876;DHT22;27555;50.808;4.402;2022-10-22T06:56:31;16.60;99.90
41876;DHT22;27555;50.808;4.402;2022-10-22T06:58:57;16.70;99.90
41876;DHT22;27555;50.808;4.402;2022-10-22T07:01:26;16.70;99.90
41876;DHT22;27555;50.808;4.402;2022-10-22T07:03:52;16.40;99.90
41876;DHT22;27555;50.808;4.402;2022-10-22T07:06:18;16.40;99.90
41876;DHT22;27555;50.808;4.402;2022-10-22T07:08:44;16.60;99.90
41876;DHT22;27555;50.808;4.402;2022-10-22T07:11:13;16.60;99.90
41876;DHT22;27555;50.808;4.402;2022-10-22T07:13:39;16.90;99.90
41876;DHT22;27555;50.808;4.402;2022-10-22T07:16:05;17.10;99.90
41876;DHT22;27555;50.808;4.402;2022-10-22T07:18:32;17.00;99.90
41876;DHT22;27555;50.808;4.402;2022-10-22T07:20:58;16.90;99.90
41876;DHT22;27555;50.808;4.402;2022-10-22T07:23:24;17.10;99.90
41876;DHT22;27555;50.808;4.402;2022-10-22T07:25:50;17.20;99.90
41876;DHT22;27555;50.808;4.402;2022-10-22T07:28:15;17.20;99.90
41876;DHT22;27555;50.808;4.402;2022-10-22T07:30:41;17.50;99.90
41876;DHT22;27555;50.808;4.402;2022-10-22T07:33:07;17.60;99.90
41876;DHT22;27555;50.808;4.402;2022-10-22T07:35:33;17.80;99.90
41876;DHT22;27555;50.808;4.402;2022-10-22T07:37:59;17.70;99.90
41876;DHT22;27555;50.808;4.402;2022-10-22T07:40:25;17.70;99.90
41876;DHT22;27555;50.808;4.402;2022-10-22T07:42:52;17.70;99.90
41876;DHT22;27555;50.808;4.402;2022-10-22T07:45:18;17.70;99.90
41876;DHT22;27555;50.808;4.402;2022-10-22T07:47:46;17.60;99.90
41876;DHT22;27555;50.808;4.402;2022-10-22T07:50:12;17.80;99.90
41876;DHT22;27555;50.808;4.402;2022-10-22T07:52:37;17.70;99.90
41876;DHT22;27555;50.808;4.402;2022-10-22T07:55:03;17.70;99.90
41876;DHT22;27555;50.808;4.402;2022-10-22T07:57:29;17.70;99.90
41876;DHT22;27555;50.808;4.402;2022-10-22T07:59:56;18.00;99.90
41876;DHT22;27555;50.808;4.402;2022-10-22T08:02:22;18.20;99.90
41876;DHT22;27555;50.808;4.402;2022-10-22T08:04:48;18.30;99.90
41876;DHT22;27555;50.808;4.402;2022-10-22T08:07:14;18.60;99.90
41876;DHT22;27555;50.808;4.402;2022-10-22T08:09:39;18.50;99.90
41876;DHT22;27555;50.808;4.402;2022-10-22T08:12:05;18.50;99.90
41876;DHT22;27555;50.808;4.402;2022-10-22T08:14:31;18.60;99.90
41876;DHT22;27555;50.808;4.402;2022-10-22T08:16:57;18.90;99.90
41876;DHT22;27555;50.808;4.402;2022-10-22T08:19:22;18.70;99.90
41876;DHT22;27555;50.808;4.402;2022-10-22T08:21:48;18.70;99.90
41876;DHT22;27555;50.808;4.402;2022-10-22T08:24:14;18.40;99.90
41876;DHT22;27555;50.808;4.402;2022-10-22T08:26:40;18.40;99.90
41876;DHT22;27555;50.808;4.402;2022-10-22T08:29:06;18.40;99.90
41876;DHT22;27555;50.808;4.402;2022-10-22T08:31:32;18.30;99.90
41876;DHT22;27555;50.808;4.402;2022-10-22T08:33:58;18.40;99.90
41876;DHT22;27555;50.808;4.402;2022-10-22T08:36:23;18.20;99.90
41876;DHT22;27555;50.808;4.402;2022-10-22T08:38:49;18.10;99.90
41876;DHT22;27555;50.808;4.402;2022-10-22T08:41:19;18.20;99.90
41876;DHT22;27555;50.808;4.402;2022-10-22T08:44:08;17.90;99.90
41876;DHT22;27555;50.808;4.402;2022-10-22T08:49:44;18.20;99.90
41876;DHT22;27555;50.808;4.402;2022-10-22T08:52:15;18.20;99.90
41876;DHT22;27555;50.808;4.402;2022-10-22T08:54:57;18.00;99.90
41876;DHT22;27555;50.808;4.402;2022-10-22T09:00:57;18.10;99.90
41876;DHT22;27555;50.808;4.402;2022-10-22T09:06:14;18.40;99.90
41876;DHT22;27555;50.808;4.402;2022-10-22T09:08:42;19.00;99.90
41876;DHT22;27555;50.808;4.402;2022-10-22T09:11:31;19.50;99.90
41876;DHT22;27555;50.808;4.402;2022-10-22T09:13:58;20.70;99.90
41876;DHT22;27555;50.808;4.402;2022-10-22T09:16:47;21.10;99.90
41876;DHT22;27555;50.808;4.402;2022-10-22T09:19:25;21.50;99.90
41876;DHT22;27555;50.808;4.402;2022-10-22T09:27:24;20.90;99.90
41876;DHT22;27555;50.808;4.402;2022-10-22T09:29:50;20.60;99.90
41876;DHT22;27555;50.808;4.402;2022-10-22T09:32:16;20.40;99.90
41876;DHT22;27555;50.808;4.402;2022-10-22T09:34:45;19.90;99.90
41876;DHT22;27555;50.808;4.402;2022-10-22T09:37:11;20.00;99.90
41876;DHT22;27555;50.808;4.402;2022-10-22T09:39:40;19.70;99.90
41876;DHT22;27555;50.808;4.402;2022-10-22T09:42:07;19.60;99.90
41876;DHT22;27555;50.808;4.402;2022-10-22T09:44:34;19.50;99.90
41876;DHT22;27555;50.808;4.402;2022-10-22T09:47:12;19.00;99.90
41876;DHT22;27555;50.808;4.402;2022-10-22T09:49:50;18.90;99.90
41876;DHT22;27555;50.808;4.402;2022-10-22T09:52:29;19.10;99.90
41876;DHT22;27555;50.808;4.402;2022-10-22T09:54:55;19.90;99.90
41876;DHT22;27555;50.808;4.402;2022-10-22T09:57:21;20.20;99.90
41876;DHT22;27555;50.808;4.402;2022-10-22T09:59:49;20.50;99.90
41876;DHT22;27555;50.808;4.402;2022-10-22T10:02:20;20.70;99.90
41876;DHT22;27555;50.808;4.402;2022-10-22T10:04:52;20.60;99.90
41876;DHT22;27555;50.808;4.402;2022-10-22T10:07:23;20.30;99.90
41876;DHT22;27555;50.808;4.402;2022-10-22T10:09:50;20.10;99.90
41876;DHT22;27555;50.808;4.402;2022-10-22T10:17:46;20.00;99.90
41876;DHT22;27555;50.808;4.402;2022-10-22T10:25:51;19.90;99.90
41876;DHT22;27555;50.808;4.402;2022-10-22T10:36:51;22.30;99.90
41876;DHT22;27555;50.808;4.402;2022-10-22T10:39:26;22.00;99.90
41876;DHT22;27555;50.808;4.402;2022-10-22T10:42:21;22.20;99.90
41876;DHT22;27555;50.808;4.402;2022-10-22T10:56:29;21.70;99.90
41876;DHT22;27555;50.808;4.402;2022-10-22T11:05:02;21.30;99.90
41876;DHT22;27555;50.808;4.402;2022-10-22T11:07:46;21.00;99.90
41876;DHT22;27555;50.808;4.402;2022-10-22T11:10:16;20.70;99.90
41876;DHT22;27555;50.808;4.402;2022-10-22T11:12:46;20.40;99.90
41876;DHT22;27555;50.808;4.402;2022-10-22T11:15:24;20.80;99.90
41876;DHT22;27555;50.808;4.402;2022-10-22T11:17:55;21.00;99.90
41876;DHT22;27555;50.808;4.402;2022-10-22T11:20:43;21.10;99.90
41876;DHT22;27555;50.808;4.402;2022-10-22T11:23:27;20.90;99.90
41876;DHT22;27555;50.808;4.402;2022-10-22T11:25:54;20.80;99.90
41876;DHT22;27555;50.808;4.402;2022-10-22T11:28:46;20.40;99.90
41876;DHT22;27555;50.808;4.402;2022-10-22T11:31:14;20.50;99.90
41876;DHT22;27555;50.808;4.402;2022-10-22T11:34:20;20.50;99.90
41876;DHT22;27555;50.808;4.402;2022-10-22T11:36:38;20.80;99.90
41876;DHT22;27555;50.808;4.402;2022-10-22T11:39:04;20.90;99.90
41876;DHT22;27555;50.808;4.402;2022-10-22T11:41:32;20.80;99.90
41876;DHT22;27555;50.808;4.402;2022-10-22T11:44:10;20.80;99.90
41876;DHT22;27555;50.808;4.402;2022-10-22T11:47:08;21.10;99.90
41876;DHT22;27555;50.808;4.402;2022-10-22T11:49:45;21.00;99.90
41876;DHT22;27555;50.808;4.402;2022-10-22T11:55:01;21.60;99.90
41876;DHT22;27555;50.808;4.402;2022-10-22T11:57:36;21.30;99.90
41876;DHT22;27555;50.808;4.402;2022-10-22T12:00:20;21.30;99.90
41876;DHT22;27555;50.808;4.402;2022-10-22T12:05:43;23.00;99.90
41876;DHT22;27555;50.808;4.402;2022-10-22T12:13:24;23.70;98.40
41876;DHT22;27555;50.808;4.402;2022-10-22T12:15:53;24.40;97.90
41876;DHT22;27555;50.808;4.402;2022-10-22T12:18:25;24.50;97.70
41876;DHT22;27555;50.808;4.402;2022-10-22T12:20:52;23.60;98.00
41876;DHT22;27555;50.808;4.402;2022-10-22T12:23:22;23.00;98.60
41876;DHT22;27555;50.808;4.402;2022-10-22T12:25:50;22.60;99.10
41876;DHT22;27555;50.808;4.402;2022-10-22T12:28:17;22.20;99.60
41876;DHT22;27555;50.808;4.402;2022-10-22T12:30:43;22.10;99.90
41876;DHT22;27555;50.808;4.402;2022-10-22T12:33:19;22.20;99.90
41876;DHT22;27555;50.808;4.402;2022-10-22T12:35:45;23.30;99.20
41876;DHT22;27555;50.808;4.402;2022-10-22T12:38:17;24.20;98.30
41876;DHT22;27555;50.808;4.402;2022-10-22T12:40:44;24.60;97.40
41876;DHT22;27555;50.808;4.402;2022-10-22T12:43:19;24.60;97.10
41876;DHT22;27555;50.808;4.402;2022-10-22T12:45:49;24.30;97.20
41876;DHT22;27555;50.808;4.402;2022-10-22T12:48:18;23.70;97.60
41876;DHT22;27555;50.808;4.402;2022-10-22T12:50:57;23.00;98.00
41876;DHT22;27555;50.808;4.402;2022-10-22T12:53:32;22.70;98.50
41876;DHT22;27555;50.808;4.402;2022-10-22T12:56:06;22.10;99.30
41876;DHT22;27555;50.808;4.402;2022-10-22T12:58:56;21.80;99.50
41876;DHT22;27555;50.808;4.402;2022-10-22T13:01:25;21.80;99.80
41876;DHT22;27555;50.808;4.402;2022-10-22T13:04:17;21.80;99.60
41876;DHT22;27555;50.808;4.402;2022-10-22T13:06:51;21.80;99.40
41876;DHT22;27555;50.808;4.402;2022-10-22T13:09:22;21.20;99.90
41876;DHT22;27555;50.808;4.402;2022-10-22T13:12:01;21.20;99.90
41876;DHT22;27555;50.808;4.402;2022-10-22T13:14:30;21.30;99.90
41876;DHT22;27555;50.808;4.402;2022-10-22T13:19:59;21.30;99.90
41876;DHT22;27555;50.808;4.402;2022-10-22T13:22:39;21.30;99.90
41876;DHT22;27555;50.808;4.402;2022-10-22T13:27:49;21.40;99.90
41876;DHT22;27555;50.808;4.402;2022-10-22T13:30:32;21.10;99.90
41876;DHT22;27555;50.808;4.402;2022-10-22T13:35:38;21.00;99.90
41876;DHT22;27555;50.808;4.402;2022-10-22T13:38:21;21.20;99.90
41876;DHT22;27555;50.808;4.402;2022-10-22T13:40:47;21.30;99.90
41876;DHT22;27555;50.808;4.402;2022-10-22T13:43:14;21.40;99.90
41876;DHT22;27555;50.808;4.402;2022-10-22T13:45:39;21.40;99.90
41876;DHT22;27555;50.808;4.402;2022-10-22T13:48:12;21.40;99.90
41876;DHT22;27555;50.808;4.402;2022-10-22T13:50:39;21.10;99.90
41876;DHT22;27555;50.808;4.402;2022-10-22T13:53:05;20.90;99.90
41876;DHT22;27555;50.808;4.402;2022-10-22T13:55:35;20.80;99.90
41876;DHT22;27555;50.808;4.402;2022-10-22T13:58:08;20.90;99.90
41876;DHT22;27555;50.808;4.402;2022-10-22T14:00:34;20.80;99.90
41876;DHT22;27555;50.808;4.402;2022-10-22T14:03:02;20.70;99.90
41876;DHT22;27555;50.808;4.402;2022-10-22T14:05:28;20.70;99.90
41876;DHT22;27555;50.808;4.402;2022-10-22T14:07:54;20.70;99.90
41876;DHT22;27555;50.808;4.402;2022-10-22T14:10:23;21.00;99.90
41876;DHT22;27555;50.808;4.402;2022-10-22T14:12:50;21.20;99.90
41876;DHT22;27555;50.808;4.402;2022-10-22T14:15:18;21.30;99.90
41876;DHT22;27555;50.808;4.402;2022-10-22T14:17:47;21.20;99.90
41876;DHT22;27555;50.808;4.402;2022-10-22T14:20:14;21.10;99.90
41876;DHT22;27555;50.808;4.402;2022-10-22T14:22:41;21.10;99.90
41876;DHT22;27555;50.808;4.402;2022-10-22T14:25:10;21.00;99.90
41876;DHT22;27555;50.808;4.402;2022-10-22T14:27:36;21.00;99.90
41876;DHT22;27555;50.808;4.402;2022-10-22T14:30:06;21.20;99.90
41876;DHT22;27555;50.808;4.402;2022-10-22T14:32:31;21.10;99.90
41876;DHT22;27555;50.808;4.402;2022-10-22T14:34:57;21.00;99.90
41876;DHT22;27555;50.808;4.402;2022-10-22T14:37:24;21.10;99.90
41876;DHT22;27555;50.808;4.402;2022-10-22T14:39:49;21.20;99.90
41876;DHT22;27555;50.808;4.402;2022-10-22T14:42:24;21.30;99.90
41876;DHT22;27555;50.808;4.402;2022-10-22T14:44:50;21.30;99.90
41876;DHT22;27555;50.808;4.402;2022-10-22T14:47:16;21.50;99.90
41876;DHT22;27555;50.808;4.402;2022-10-22T14:49:42;21.40;99.90
41876;DHT22;27555;50.808;4.402;2022-10-22T14:52:07;21.40;99.90
41876;DHT22;27555;50.808;4.402;2022-10-22T14:54:36;21.60;99.90
41876;DHT22;27555;50.808;4.402;2022-10-22T14:57:03;21.50;99.90
41876;DHT22;27555;50.808;4.402;2022-10-22T14:59:29;21.10;99.90
41876;DHT22;27555;50.808;4.402;2022-10-22T15:01:55;21.10;99.90
41876;DHT22;27555;50.808;4.402;2022-10-22T15:04:21;21.00;99.90
41876;DHT22;27555;50.808;4.402;2022-10-22T15:06:51;21.00;99.90
41876;DHT22;27555;50.808;4.402;2022-10-22T15:09:21;20.80;99.90
41876;DHT22;27555;50.808;4.402;2022-10-22T15:11:47;21.00;99.90
41876;DHT22;27555;50.808;4.402;2022-10-22T15:14:12;20.90;99.90
41876;DHT22;27555;50.808;4.402;2022-10-22T15:16:40;20.90;99.90
41876;DHT22;27555;50.808;4.402;2022-10-22T15:19:07;20.80;99.90
41876;DHT22;27555;50.808;4.402;2022-10-22T15:21:32;20.60;99.90
41876;DHT22;27555;50.808;4.402;2022-10-22T15:23:59;20.70;99.90
41876;DHT22;27555;50.808;4.402;2022-10-22T15:26:25;20.90;99.90
41876;DHT22;27555;50.808;4.402;2022-10-22T15:28:50;20.80;99.90
41876;DHT22;27555;50.808;4.402;2022-10-22T15:34:11;20.80;99.90
41876;DHT22;27555;50.808;4.402;2022-10-22T15:36:37;20.60;99.90
41876;DHT22;27555;50.808;4.402;2022-10-22T15:39:08;20.40;99.90
41876;DHT22;27555;50.808;4.402;2022-10-22T15:41:34;20.40;99.90
41876;DHT22;27555;50.808;4.402;2022-10-22T15:44:00;20.50;99.90
41876;DHT22;27555;50.808;4.402;2022-10-22T15:46:25;20.50;99.90
41876;DHT22;27555;50.808;4.402;2022-10-22T15:48:53;20.60;99.90
41876;DHT22;27555;50.808;4.402;2022-10-22T15:51:19;20.50;99.90
41876;DHT22;27555;50.808;4.402;2022-10-22T15:53:52;20.50;99.90
41876;DHT22;27555;50.808;4.402;2022-10-22T15:56:19;20.40;99.90
41876;DHT22;27555;50.808;4.402;2022-10-22T15:58:44;20.20;99.90
41876;DHT22;27555;50.808;4.402;2022-10-22T16:01:12;20.10;99.90
41876;DHT22;27555;50.808;4.402;2022-10-22T16:03:39;20.10;99.90
41876;DHT22;27555;50.808;4.402;2022-10-22T16:06:07;19.80;99.90
41876;DHT22;27555;50.808;4.402;2022-10-22T16:08:34;19.80;99.90
41876;DHT22;27555;50.808;4.402;2022-10-22T16:10:59;19.80;99.90
41876;DHT22;27555;50.808;4.402;2022-10-22T16:13:25;19.80;99.90
41876;DHT22;27555;50.808;4.402;2022-10-22T16:15:51;19.80;99.90
41876;DHT22;27555;50.808;4.402;2022-10-22T16:18:18;19.70;99.90
41876;DHT22;27555;50.808;4.402;2022-10-22T16:20:43;19.70;99.90
41876;DHT22;27555;50.808;4.402;2022-10-22T16:23:10;19.60;99.90
41876;DHT22;27555;50.808;4.402;2022-10-22T16:25:42;19.60;99.90
41876;DHT22;27555;50.808;4.402;2022-10-22T16:28:13;19.40;99.90
41876;DHT22;27555;50.808;4.402;2022-10-22T16:30:38;19.30;99.90
41876;DHT22;27555;50.808;4.402;2022-10-22T16:33:05;19.30;99.90
41876;DHT22;27555;50.808;4.402;2022-10-22T16:35:31;19.30;99.90
41876;DHT22;27555;50.808;4.402;2022-10-22T16:37:57;19.20;99.90
41876;DHT22;27555;50.808;4.402;2022-10-22T16:40:23;19.20;99.90
41876;DHT22;27555;50.808;4.402;2022-10-22T16:42:48;19.10;99.90
41876;DHT22;27555;50.808;4.402;2022-10-22T16:45:15;18.90;99.90
41876;DHT22;27555;50.808;4.402;2022-10-22T16:47:41;18.80;99.90
41876;DHT22;27555;50.808;4.402;2022-10-22T16:50:11;18.70;99.90
41876;DHT22;27555;50.808;4.402;2022-10-22T16:52:37;18.70;99.90
41876;DHT22;27555;50.808;4.402;2022-10-22T16:55:03;18.60;99.90
41876;DHT22;27555;50.808;4.402;2022-10-22T16:57:28;18.60;99.90
41876;DHT22;27555;50.808;4.402;2022-10-22T16:59:56;18.50;99.90
41876;DHT22;27555;50.808;4.402;2022-10-22T17:02:23;18.40;99.90
41876;DHT22;27555;50.808;4.402;2022-10-22T17:04:48;18.40;99.90
41876;DHT22;27555;50.808;4.402;2022-10-22T17:07:14;18.30;99.90
41876;DHT22;27555;50.808;4.402;2022-10-22T17:09:41;18.30;99.90
41876;DHT22;27555;50.808;4.402;2022-10-22T17:12:06;18.30;99.90
41876;DHT22;27555;50.808;4.402;2022-10-22T17:14:32;18.30;99.90
41876;DHT22;27555;50.808;4.402;2022-10-22T17:16:58;18.20;99.90
41876;DHT22;27555;50.808;4.402;2022-10-22T17:19:23;18.20;99.90
41876;DHT22;27555;50.808;4.402;2022-10-22T17:21:49;18.00;99.90